Holly Ridge, NC (28445)

8:54 AM EST on February 10, 2016 (GMT -0500)
Crosswoods | | Change Station
CLOSE
Current Station
Personal Weather Station
Location: Holly Ridge, NC
Elevation: 26 ft
Nearby Weather Stations

Elev 26 ft 34.53 °N, 77.49 °W | Updated 4 seconds ago

Clear
Clear
34.2 °F
Feels Like 34 °F
N
0.0
Wind Variable Wind from SW
Gusts 0.0 mph

Today
High -- | Low -- °F
--% Chance of Precip.
Yesterday
High -- | Low -- °F
Precip. -- in
Pressure 29.95 in
Visibility 10.0 miles
Clouds Clear
Windchill 34 °F
Dew Point 18 °F
Humidity 52%
Rainfall 0.00 in
Snow Depth Not available.
7:00 AM 5:48 PM
Waxing Crescent, 5% visible
METAR KNCA 101256Z AUTO 28009KT 10SM CLR M01/M09 A2994 RMK AO2 SLP142 T10061089
Pressure 29.95 in
Visibility 10.0 miles
Clouds Clear
Windchill 34 °F
Dew Point 18 °F
Humidity 52%
Rainfall 0.00 in
Snow Depth Not available.
7:00 AM 5:48 PM
Waxing Crescent, 5% visible
METAR KNCA 101256Z AUTO 28009KT 10SM CLR M01/M09 A2994 RMK AO2 SLP142 T10061089

10-Day Weather Forecast

Almanac

Astronomy

Feb. 10, 2016 Rise Set
Actual Time
Civil Twilight
Nautical Twilight
Astronomical Twilight
Moon
Length of Visible Light
Length of Day
Tomorrow will be .
, % of the Moon is Illuminated

Today's Extremes

State Highs State Lows

Community

WunderPhotos

Upload Photos

1,891,845 photos uploaded!

WunderBlog® & News

Nearby

Air Quality

  Air Quality AQ Index Pollutant
Not available.

Snow Depth

Station Depth Elevation

Earthquake Activity

City Distance Mag. Time & Date
Minimum magnitude displayed is 2.5.

Coastal Water Temperatures

Place Temperature

Stations

Nearby Weather Stations

Station Location Temp. Windchill Dew Point Humidity Wind Precip. Elev Updated Type
                   

Watches & Warnings

There are currently no watches in effect.